createdAt,value
2022-11-02T00:02:13.762Z,14.02
2022-11-02T00:04:40.231Z,14.08
2022-11-02T00:07:06.770Z,13.90
2022-11-02T00:09:33.201Z,13.82
2022-11-02T00:11:59.724Z,13.95
2022-11-02T00:14:26.169Z,13.83
2022-11-02T00:16:52.601Z,13.77
2022-11-02T00:19:19.118Z,13.76
2022-11-02T00:21:45.557Z,13.85
2022-11-02T00:24:12.087Z,13.99
2022-11-02T00:26:38.584Z,14.11
2022-11-02T00:29:05.183Z,14.11
2022-11-02T00:31:31.694Z,13.84
2022-11-02T00:33:58.559Z,13.91
2022-11-02T00:36:25.163Z,13.94
2022-11-02T00:38:51.633Z,13.97
2022-11-02T00:41:19.083Z,13.97
2022-11-02T00:43:45.764Z,14.02
2022-11-02T00:46:12.705Z,14.04
2022-11-02T00:48:39.191Z,14.07
2022-11-02T00:51:05.882Z,14.12
2022-11-02T00:53:32.360Z,14.27
2022-11-02T00:55:59.163Z,14.32
2022-11-02T00:58:25.880Z,14.35
2022-11-02T01:00:52.631Z,14.38
2022-11-02T01:03:19.102Z,14.35
2022-11-02T01:05:46.344Z,14.35
2022-11-02T01:08:12.799Z,14.21
2022-11-02T01:10:42.733Z,14.20
2022-11-02T01:13:12.165Z,14.19
2022-11-02T01:15:39.596Z,14.34
2022-11-02T01:18:06.480Z,14.25
2022-11-02T01:20:33.192Z,14.16
2022-11-02T01:22:59.673Z,14.11
2022-11-02T01:25:26.273Z,14.08
2022-11-02T01:27:52.771Z,14.00
2022-11-02T01:30:19.267Z,13.92
2022-11-02T01:32:45.768Z,14.04
2022-11-02T01:35:12.265Z,14.01
2022-11-02T01:37:38.744Z,14.04
2022-11-02T01:40:05.538Z,13.98
2022-11-02T01:42:32.145Z,14.05
2022-11-02T01:44:58.641Z,14.20
2022-11-02T01:47:26.483Z,14.08
2022-11-02T01:50:05.004Z,14.04
2022-11-02T01:52:33.148Z,13.99
2022-11-02T01:55:01.833Z,14.04
2022-11-02T01:57:29.000Z,13.92
2022-11-02T02:00:03.964Z,13.90
2022-11-02T02:02:43.308Z,13.96
2022-11-02T02:05:10.355Z,13.91
2022-11-02T02:07:37.971Z,13.89
2022-11-02T02:10:05.129Z,13.92
2022-11-02T02:12:33.545Z,13.73
2022-11-02T02:15:00.135Z,13.89
2022-11-02T02:17:28.950Z,14.02
2022-11-02T02:20:26.635Z,13.94
2022-11-02T02:22:53.337Z,13.95
2022-11-02T02:29:20.556Z,13.88
2022-11-02T02:32:06.693Z,13.98
2022-11-02T02:34:41.636Z,13.97
2022-11-02T02:37:10.194Z,13.95
2022-11-02T02:39:36.988Z,14.07
2022-11-02T02:42:06.636Z,14.42
2022-11-02T02:44:34.189Z,14.52
2022-11-02T02:47:02.391Z,14.43
2022-11-02T02:49:34.404Z,14.40
2022-11-02T02:52:01.472Z,14.47
2022-11-02T02:54:46.672Z,14.27
2022-11-02T02:57:13.882Z,14.23
2022-11-02T02:59:44.304Z,14.25
2022-11-02T03:02:16.481Z,14.22
2022-11-02T03:04:43.153Z,14.10
2022-11-02T03:07:09.949Z,14.22
2022-11-02T03:09:40.800Z,13.96
2022-11-02T03:12:18.124Z,14.13
2022-11-02T03:14:44.621Z,13.87
2022-11-02T03:17:15.295Z,13.90
2022-11-02T03:19:51.466Z,13.94
2022-11-02T03:22:23.203Z,13.74
2022-11-02T03:24:52.798Z,13.77
2022-11-02T03:27:25.174Z,13.75
2022-11-02T03:30:11.197Z,13.75
2022-11-02T03:32:39.863Z,13.88
2022-11-02T03:35:10.372Z,13.69
2022-11-02T03:37:41.281Z,13.65
2022-11-02T03:40:11.753Z,13.57
2022-11-02T03:42:39.946Z,13.63
2022-11-02T03:45:12.851Z,13.62
2022-11-02T03:47:39.688Z,13.68
2022-11-02T03:50:10.039Z,13.37
2022-11-02T03:52:38.116Z,13.21
2022-11-02T03:55:06.118Z,13.20
2022-11-02T03:57:35.258Z,13.49
2022-11-02T04:00:06.196Z,13.56
2022-11-02T04:02:41.379Z,13.54
2022-11-02T04:05:08.713Z,13.55
2022-11-02T04:07:58.463Z,13.63
2022-11-02T04:10:27.445Z,13.62
2022-11-02T04:13:12.776Z,13.48
2022-11-02T04:15:39.260Z,13.43
2022-11-02T04:18:24.445Z,13.35
2022-11-02T04:20:51.150Z,13.35
2022-11-02T04:23:36.619Z,13.26
2022-11-02T04:26:05.011Z,13.20
2022-11-02T04:28:38.723Z,13.25
2022-11-02T04:31:05.827Z,13.14
2022-11-02T04:33:37.335Z,13.23
2022-11-02T04:36:07.317Z,13.10
2022-11-02T04:38:40.763Z,13.25
2022-11-02T04:41:37.170Z,13.24
2022-11-02T04:44:07.259Z,13.14
2022-11-02T04:46:35.226Z,13.21
2022-11-02T04:51:49.851Z,13.15
2022-11-02T04:54:18.742Z,13.26
2022-11-02T04:56:47.849Z,13.07
2022-11-02T04:59:15.902Z,13.05
2022-11-02T05:01:42.867Z,13.07
2022-11-02T05:04:09.682Z,12.99
2022-11-02T05:06:36.908Z,13.05
2022-11-02T05:09:04.146Z,13.09
2022-11-02T05:11:32.546Z,13.08
2022-11-02T05:13:59.694Z,13.16
2022-11-02T05:16:29.999Z,13.08
2022-11-02T05:18:57.341Z,13.21
2022-11-02T05:21:27.821Z,13.17
2022-11-02T05:23:55.307Z,13.10
2022-11-02T05:26:22.504Z,12.96
2022-11-02T05:28:51.414Z,12.98
2022-11-02T05:31:17.949Z,12.95
2022-11-02T05:33:44.587Z,12.96
2022-11-02T05:36:16.345Z,12.99
2022-11-02T05:38:46.215Z,12.89
2022-11-02T05:41:21.812Z,12.90
2022-11-02T05:43:49.772Z,12.83
2022-11-02T05:46:21.157Z,12.68
2022-11-02T05:48:47.612Z,12.85
2022-11-02T05:51:14.436Z,13.01
2022-11-02T05:53:40.929Z,12.89
2022-11-02T05:56:07.705Z,12.81
2022-11-02T05:58:34.336Z,12.99
2022-11-02T06:01:01.361Z,12.83
2022-11-02T06:03:27.964Z,12.76
2022-11-02T06:05:58.323Z,12.71
2022-11-02T06:08:24.943Z,12.73
2022-11-02T06:10:51.491Z,12.51
2022-11-02T06:13:24.838Z,12.66
2022-11-02T06:15:51.915Z,12.60
2022-11-02T06:18:18.472Z,12.64
2022-11-02T06:20:47.888Z,12.63
2022-11-02T06:23:20.125Z,12.65
2022-11-02T06:25:50.465Z,12.82
2022-11-02T06:28:46.274Z,12.91
2022-11-02T06:31:17.359Z,12.83
2022-11-02T06:33:45.325Z,12.75
2022-11-02T06:36:11.945Z,12.66
2022-11-02T06:38:38.758Z,12.98
2022-11-02T06:41:06.833Z,12.83
2022-11-02T06:43:38.237Z,12.72
2022-11-02T06:46:05.119Z,12.97
2022-11-02T06:48:35.366Z,12.98
2022-11-02T06:51:03.042Z,12.79
2022-11-02T06:53:29.641Z,12.93
2022-11-02T06:55:56.922Z,12.99
2022-11-02T06:58:24.568Z,12.91
2022-11-02T07:00:51.611Z,12.93
2022-11-02T07:03:18.199Z,12.75
2022-11-02T07:05:49.635Z,12.78
2022-11-02T07:08:16.129Z,12.86
2022-11-02T07:10:42.681Z,13.12
2022-11-02T07:13:09.287Z,12.91
2022-11-02T07:15:35.917Z,12.94
2022-11-02T07:18:09.122Z,12.82
2022-11-02T07:20:35.752Z,13.13
2022-11-02T07:23:02.641Z,13.02
2022-11-02T07:25:32.823Z,12.98
2022-11-02T07:28:00.038Z,12.99
2022-11-02T07:30:27.559Z,13.02
2022-11-02T07:32:54.154Z,13.03
2022-11-02T07:35:20.711Z,12.99
2022-11-02T07:38:01.842Z,12.82
2022-11-02T07:40:29.635Z,12.99
2022-11-02T07:42:56.706Z,12.74
2022-11-02T07:45:34.536Z,12.67
2022-11-02T07:48:04.265Z,12.76
2022-11-02T07:50:30.868Z,12.85
2022-11-02T07:52:57.950Z,12.87
2022-11-02T07:55:26.088Z,12.95
2022-11-02T07:57:53.548Z,13.12
2022-11-02T08:00:20.103Z,12.94
2022-11-02T08:02:47.136Z,12.89
2022-11-02T08:05:13.780Z,13.04
2022-11-02T08:07:40.299Z,13.07
2022-11-02T08:10:07.294Z,13.04
2022-11-02T08:12:33.699Z,13.11
2022-11-02T08:15:07.362Z,13.15
2022-11-02T08:17:34.350Z,12.93
2022-11-02T08:20:00.921Z,13.17
2022-11-02T08:22:27.431Z,13.15
2022-11-02T08:24:53.912Z,13.15
2022-11-02T08:27:20.487Z,13.14
2022-11-02T08:29:46.971Z,13.08
2022-11-02T08:32:13.464Z,12.95
2022-11-02T08:34:39.971Z,13.06
2022-11-02T08:37:07.208Z,13.20
2022-11-02T08:39:33.707Z,13.27
2022-11-02T08:42:00.195Z,13.38
2022-11-02T08:44:26.636Z,13.45
2022-11-02T08:49:21.172Z,13.28
2022-11-02T08:51:47.859Z,13.22
2022-11-02T08:54:14.353Z,13.44
2022-11-02T08:56:40.945Z,13.54
2022-11-02T08:59:07.572Z,13.53
2022-11-02T09:01:34.044Z,13.61
2022-11-02T09:04:00.577Z,13.86
2022-11-02T09:06:27.030Z,13.91
2022-11-02T09:08:56.332Z,13.54
2022-11-02T09:11:24.574Z,13.74
2022-11-02T09:13:56.476Z,13.73
2022-11-02T09:16:23.803Z,14.02
2022-11-02T09:18:50.512Z,14.05
2022-11-02T09:21:16.972Z,13.92
2022-11-02T09:23:43.972Z,13.83
2022-11-02T09:26:10.718Z,13.86
2022-11-02T09:28:37.365Z,14.09
2022-11-02T09:31:07.298Z,13.95
2022-11-02T09:33:37.308Z,14.03
2022-11-02T09:36:04.505Z,14.28
2022-11-02T09:38:31.062Z,14.08
2022-11-02T09:41:16.175Z,13.95
2022-11-02T09:43:48.708Z,14.07
2022-11-02T09:46:25.641Z,14.14
2022-11-02T09:49:18.545Z,14.04
2022-11-02T09:51:46.643Z,14.05
2022-11-02T09:54:19.199Z,14.23
2022-11-02T09:56:46.053Z,13.92
2022-11-02T09:59:15.720Z,13.85
2022-11-02T10:01:45.295Z,13.70
2022-11-02T10:04:21.057Z,13.91
2022-11-02T10:06:51.822Z,13.91
2022-11-02T10:09:20.899Z,14.02
2022-11-02T10:11:56.564Z,14.12
2022-11-02T10:14:22.986Z,14.02
2022-11-02T10:16:52.959Z,14.22
2022-11-02T10:19:20.652Z,14.25
2022-11-02T10:21:48.555Z,14.42
2022-11-02T10:24:25.902Z,14.26
2022-11-02T10:26:59.310Z,14.52
2022-11-02T10:29:46.223Z,14.23
2022-11-02T10:32:13.103Z,14.45
2022-11-02T10:34:39.885Z,14.73
2022-11-02T10:37:06.300Z,14.86
2022-11-02T10:39:32.728Z,14.78
2022-11-02T10:41:59.208Z,14.73
2022-11-02T10:44:32.705Z,14.77
2022-11-02T10:47:03.086Z,15.16
2022-11-02T10:49:41.798Z,15.30
2022-11-02T10:52:10.415Z,15.23
2022-11-02T10:54:36.883Z,15.09
2022-11-02T10:57:08.571Z,14.97
2022-11-02T10:59:35.430Z,14.96
2022-11-02T11:02:03.225Z,15.39
2022-11-02T11:04:30.853Z,15.03
2022-11-02T11:06:58.478Z,14.81
2022-11-02T11:09:25.872Z,14.79
2022-11-02T11:11:53.281Z,14.75
2022-11-02T11:20:04.282Z,14.81
2022-11-02T11:22:37.485Z,14.85
2022-11-02T11:25:13.333Z,14.81
2022-11-02T11:27:46.889Z,14.92
2022-11-02T11:30:46.191Z,15.12
2022-11-02T11:33:14.488Z,15.05
2022-11-02T11:35:41.075Z,14.87
2022-11-02T11:38:09.126Z,15.16
2022-11-02T11:40:36.421Z,14.90
2022-11-02T11:43:02.942Z,14.83
2022-11-02T11:45:29.754Z,14.89
2022-11-02T11:48:06.656Z,14.88
2022-11-02T11:50:33.494Z,14.62
2022-11-02T11:53:15.510Z,14.71
2022-11-02T11:55:49.014Z,14.89
2022-11-02T11:58:23.054Z,15.14
2022-11-02T12:01:10.350Z,15.13
2022-11-02T12:03:51.403Z,14.93
2022-11-02T12:06:20.963Z,15.05
2022-11-02T12:08:53.607Z,15.28
2022-11-02T12:11:26.044Z,15.18
2022-11-02T12:13:55.807Z,15.14
2022-11-02T12:16:26.041Z,15.45
2022-11-02T12:19:11.567Z,15.26
2022-11-02T12:21:38.099Z,15.13
2022-11-02T12:24:04.532Z,15.20
2022-11-02T12:26:50.106Z,14.87
2022-11-02T12:29:25.361Z,15.14
2022-11-02T12:31:54.554Z,15.12
2022-11-02T12:34:27.775Z,15.17
2022-11-02T12:37:31.296Z,15.16
2022-11-02T12:39:49.585Z,15.21
2022-11-02T12:42:32.444Z,15.35
2022-11-02T12:45:05.328Z,15.36
2022-11-02T12:47:31.830Z,15.18
2022-11-02T12:50:08.643Z,15.25
2022-11-02T12:52:53.342Z,15.53
2022-11-02T12:55:24.662Z,15.51
2022-11-02T12:57:59.666Z,15.69
2022-11-02T13:00:26.077Z,15.37
2022-11-02T13:02:52.514Z,15.48
2022-11-02T13:05:21.240Z,15.60
2022-11-02T13:07:49.046Z,15.19
2022-11-02T13:10:25.954Z,14.96
2022-11-02T13:12:53.702Z,15.25
2022-11-02T13:15:21.085Z,15.38
2022-11-02T13:17:56.213Z,15.56
2022-11-02T13:20:23.006Z,15.44
2022-11-02T13:22:52.502Z,15.41
2022-11-02T13:25:28.579Z,15.48
2022-11-02T13:28:00.061Z,15.62
2022-11-02T13:30:29.378Z,15.67
2022-11-02T13:33:03.897Z,15.78
2022-11-02T13:35:34.894Z,15.73
2022-11-02T13:38:31.955Z,15.63
2022-11-02T13:41:01.586Z,15.83
2022-11-02T13:43:48.324Z,15.83
2022-11-02T13:46:25.138Z,15.85
2022-11-02T13:48:57.863Z,15.83
2022-11-02T13:51:24.768Z,15.81
2022-11-02T13:53:53.418Z,15.68
2022-11-02T13:56:36.873Z,15.77
2022-11-02T13:59:16.571Z,15.83
2022-11-02T14:01:43.142Z,15.90
2022-11-02T14:04:13.164Z,16.06
2022-11-02T14:06:44.422Z,16.41
2022-11-02T14:09:10.926Z,16.43
2022-11-02T14:11:40.531Z,16.08
2022-11-02T14:14:10.196Z,15.99
2022-11-02T14:16:42.577Z,15.65
2022-11-02T14:19:20.608Z,15.53
2022-11-02T14:21:51.330Z,15.58
2022-11-02T14:24:33.498Z,15.66
2022-11-02T14:27:07.462Z,15.47
2022-11-02T14:29:59.339Z,15.47
2022-11-02T14:32:42.038Z,15.69
2022-11-02T14:35:09.862Z,15.40
2022-11-02T14:37:51.010Z,15.32
2022-11-02T14:40:23.876Z,15.32
2022-11-02T14:42:59.784Z,15.25
2022-11-02T14:45:32.529Z,15.14
2022-11-02T14:48:00.151Z,15.32
2022-11-02T14:50:27.118Z,15.59
2022-11-02T14:52:55.308Z,15.28
2022-11-02T14:55:23.041Z,15.42
2022-11-02T14:57:54.705Z,15.51
2022-11-02T15:00:22.272Z,15.68
2022-11-02T15:02:48.939Z,15.53
2022-11-02T15:05:24.702Z,15.55
2022-11-02T15:07:52.613Z,15.55
2022-11-02T15:10:19.090Z,15.41
2022-11-02T15:12:46.577Z,15.33
2022-11-02T15:15:28.412Z,15.29
2022-11-02T15:17:59.866Z,15.22
2022-11-02T15:20:27.541Z,15.26
2022-11-02T15:22:59.969Z,15.14
2022-11-02T15:25:34.034Z,15.10
2022-11-02T15:28:07.917Z,15.00
2022-11-02T15:30:37.978Z,14.94
2022-11-02T15:33:05.990Z,14.89
2022-11-02T15:35:34.029Z,14.97
2022-11-02T15:38:17.030Z,14.89
2022-11-02T15:40:47.023Z,14.75
2022-11-02T15:43:13.528Z,14.77
2022-11-02T15:45:51.644Z,14.82
2022-11-02T15:48:43.466Z,14.67
2022-11-02T15:51:22.138Z,14.73
2022-11-02T15:54:04.321Z,14.66
2022-11-02T15:56:36.931Z,14.57
2022-11-02T15:59:15.407Z,14.75
2022-11-02T16:01:42.625Z,14.71
2022-11-02T16:04:11.769Z,14.76
2022-11-02T16:06:39.454Z,14.45
2022-11-02T16:09:41.583Z,14.38
2022-11-02T16:12:08.092Z,14.37
2022-11-02T16:14:34.501Z,14.37
2022-11-02T16:17:01.045Z,14.57
2022-11-02T16:19:27.517Z,14.52
2022-11-02T16:21:58.445Z,14.41
2022-11-02T16:24:27.667Z,14.24
2022-11-02T16:26:54.349Z,14.15
2022-11-02T16:29:27.650Z,14.11
2022-11-02T16:31:54.426Z,14.28
2022-11-02T16:34:22.110Z,14.28
2022-11-02T16:36:51.817Z,14.22
2022-11-02T16:39:27.541Z,14.27
2022-11-02T16:41:55.794Z,14.30
2022-11-02T16:44:26.133Z,14.19
2022-11-02T16:46:57.431Z,14.23
2022-11-02T16:49:24.858Z,14.22
2022-11-02T16:51:52.637Z,14.20
2022-11-02T16:54:29.818Z,13.80
2022-11-02T16:56:58.033Z,13.92
2022-11-02T16:59:25.744Z,14.00
2022-11-02T17:01:52.311Z,13.67
2022-11-02T17:04:25.742Z,13.74
2022-11-02T17:07:00.949Z,13.73
2022-11-02T17:09:31.195Z,13.55
2022-11-02T17:11:58.778Z,13.55
2022-11-02T17:14:25.413Z,13.68
2022-11-02T17:17:01.013Z,13.70
2022-11-02T17:19:39.931Z,13.49
2022-11-02T17:22:25.472Z,13.62
2022-11-02T17:25:18.381Z,13.71
2022-11-02T17:27:45.066Z,13.40
2022-11-02T17:30:29.934Z,13.44
2022-11-02T17:32:57.154Z,13.36
2022-11-02T17:35:27.246Z,13.40
2022-11-02T17:37:54.531Z,13.40
2022-11-02T17:40:22.090Z,13.51
2022-11-02T17:43:02.218Z,13.52
2022-11-02T17:45:29.959Z,13.53
2022-11-02T17:47:56.893Z,13.54
2022-11-02T17:50:23.876Z,13.56
2022-11-02T17:52:50.838Z,13.54
2022-11-02T17:55:21.375Z,13.43
2022-11-02T17:57:50.908Z,13.54
2022-11-02T18:00:20.059Z,13.45
2022-11-02T18:03:49.198Z,13.42
2022-11-02T18:06:39.331Z,13.40
2022-11-02T18:09:11.868Z,13.43
2022-11-02T18:11:38.541Z,13.38
2022-11-02T18:14:05.192Z,13.38
2022-11-02T18:16:53.445Z,13.51
2022-11-02T18:19:20.577Z,13.35
2022-11-02T18:21:48.979Z,13.47
2022-11-02T18:24:19.196Z,13.42
2022-11-02T18:26:46.951Z,13.49
2022-11-02T18:29:13.929Z,13.46
2022-11-02T18:31:40.803Z,13.34
2022-11-02T18:34:12.585Z,13.42
2022-11-02T18:36:45.528Z,13.51
2022-11-02T18:39:12.163Z,13.63
2022-11-02T18:41:51.778Z,13.62
2022-11-02T18:44:19.026Z,13.55
2022-11-02T18:46:57.785Z,13.50
2022-11-02T18:49:30.439Z,13.28
2022-11-02T18:51:58.213Z,13.42
2022-11-02T18:54:25.644Z,13.53
2022-11-02T18:56:52.379Z,13.35
2022-11-02T18:59:18.865Z,13.37
2022-11-02T19:01:56.712Z,13.38
2022-11-02T19:04:29.444Z,13.31
2022-11-02T19:07:16.352Z,13.26
2022-11-02T19:09:43.132Z,13.31
2022-11-02T19:12:10.417Z,13.29
2022-11-02T19:14:38.331Z,13.37
2022-11-02T19:17:05.533Z,13.37
2022-11-02T19:19:34.782Z,13.47
2022-11-02T19:22:08.442Z,13.35
2022-11-02T19:24:36.151Z,13.42
2022-11-02T19:27:05.247Z,13.45
2022-11-02T19:29:31.971Z,13.30
2022-11-02T19:32:01.415Z,13.23
2022-11-02T19:34:27.988Z,13.19
2022-11-02T19:36:54.557Z,13.23
2022-11-02T19:39:21.736Z,13.37
2022-11-02T19:41:52.328Z,13.32
2022-11-02T19:44:31.054Z,13.77
2022-11-02T19:50:20.379Z,13.49
2022-11-02T19:52:49.052Z,13.51
2022-11-02T19:55:15.701Z,13.35
2022-11-02T19:57:42.363Z,13.48
2022-11-02T20:00:09.303Z,13.77
2022-11-02T20:02:36.184Z,14.11
2022-11-02T20:05:02.858Z,13.98
2022-11-02T20:11:05.217Z,13.73
2022-11-02T20:13:32.748Z,13.75
2022-11-02T20:15:59.705Z,13.60
2022-11-02T20:18:26.751Z,13.58
2022-11-02T20:20:53.454Z,13.64
2022-11-02T20:23:26.524Z,13.70
2022-11-02T20:25:54.011Z,13.55
2022-11-02T20:28:20.614Z,13.40
2022-11-02T20:30:47.300Z,13.53
2022-11-02T20:33:14.008Z,13.33
2022-11-02T20:35:43.759Z,13.27
2022-11-02T20:38:11.538Z,13.14
2022-11-02T20:40:41.256Z,13.04
2022-11-02T20:43:08.058Z,13.10
2022-11-02T20:45:34.544Z,12.95
2022-11-02T20:48:01.541Z,13.14
2022-11-02T20:50:28.784Z,13.02
2022-11-02T20:52:56.170Z,13.09
2022-11-02T20:55:22.816Z,13.05
2022-11-02T20:57:49.459Z,13.09
2022-11-02T21:00:17.811Z,12.94
2022-11-02T21:02:47.694Z,12.94
2022-11-02T21:05:14.668Z,13.12
2022-11-02T21:07:41.154Z,12.93
2022-11-02T21:10:08.052Z,12.87
2022-11-02T21:12:53.196Z,12.89
2022-11-02T21:15:19.779Z,12.90
2022-11-02T21:17:46.528Z,12.82
2022-11-02T21:23:03.512Z,12.90
2022-11-02T21:25:31.005Z,12.92
2022-11-02T21:27:57.693Z,12.86
2022-11-02T21:30:24.224Z,12.88
2022-11-02T21:32:51.835Z,12.73
2022-11-02T21:35:18.769Z,12.77
2022-11-02T21:37:45.198Z,12.71
2022-11-02T21:40:11.883Z,12.98
2022-11-02T21:42:38.460Z,12.99
2022-11-02T21:45:05.699Z,12.97
2022-11-02T21:47:34.337Z,12.86
2022-11-02T21:50:01.813Z,12.85
2022-11-02T21:52:28.365Z,12.81
2022-11-02T21:54:54.836Z,12.81
2022-11-02T21:57:21.313Z,12.76
2022-11-02T21:59:47.901Z,12.72
2022-11-02T22:02:14.512Z,12.81
2022-11-02T22:04:41.215Z,12.82
2022-11-02T22:07:07.971Z,12.82
2022-11-02T22:09:43.644Z,12.62
2022-11-02T22:12:28.874Z,12.58
2022-11-02T22:14:55.337Z,12.60
2022-11-02T22:17:43.769Z,12.59
2022-11-02T22:20:08.603Z,12.73
2022-11-02T22:22:35.047Z,12.58
2022-11-02T22:25:01.537Z,12.53
2022-11-02T22:28:45.868Z,12.68
2022-11-02T22:31:13.605Z,12.61
2022-11-02T22:33:43.665Z,12.59
2022-11-02T22:36:13.502Z,12.67
2022-11-02T22:38:55.954Z,12.83
2022-11-02T22:41:41.675Z,12.76
2022-11-02T22:44:11.164Z,12.62
2022-11-02T22:46:40.059Z,12.82
2022-11-02T22:49:07.985Z,13.04
2022-11-02T22:51:40.044Z,13.46
2022-11-02T22:54:09.597Z,13.72
2022-11-02T22:56:36.212Z,13.77
2022-11-02T22:59:03.781Z,13.87
2022-11-02T23:01:31.540Z,13.50
2022-11-02T23:03:58.734Z,13.64
2022-11-02T23:06:26.048Z,13.40
2022-11-02T23:08:55.214Z,13.27
2022-11-02T23:11:25.271Z,13.22
2022-11-02T23:14:04.976Z,13.18
2022-11-02T23:16:34.346Z,13.04
2022-11-02T23:19:27.261Z,13.21
2022-11-02T23:22:17.015Z,13.52
2022-11-02T23:25:03.379Z,13.38
2022-11-02T23:27:31.204Z,13.44
2022-11-02T23:30:22.709Z,13.72
2022-11-02T23:32:56.426Z,13.64
2022-11-02T23:35:41.644Z,13.53
2022-11-02T23:38:10.291Z,13.32
2022-11-02T23:40:36.868Z,13.21
2022-11-02T23:43:05.012Z,13.08
2022-11-02T23:45:31.808Z,12.93
2022-11-02T23:48:00.138Z,13.02
2022-11-02T23:50:48.574Z,12.78
2022-11-02T23:53:38.256Z,12.88
2022-11-02T23:56:25.073Z,12.73
2022-11-02T23:59:06.494Z,12.72
